Latest Weather Observations for Warracknabeal Airport

IDV60801

Issued at 5:32 am EDT Tuesday 13 November 2018 (issued every 10 minutes, with the page automatically refreshed every 10 minutes)

About weather observations | Map of weather stations | Latest weather observations for VIC | Other Formats
Station Details ID: 078018 Name: WARRACKNABEAL AIRPORT Lat: -36.32 Lon: 142.42 Height: 118.3 m
Data from the previous 72 hours. | See also: Recent months for locations in Victoria
Date/Time
EDT
Temp
°C
App
Temp
°C
Dew
Point
°C
Rel
Hum
%
Delta-T
°C
Wind Press
QNH
hPa
Press
MSL
hPa
Rain since
9am
mm
Dir  Spd
km/h
Gust
km/h
Spd
kts
Gust
kts
13/05:30am 19.0 16.8 1.1 30 8.1 ESE 2 11 1 6 1009.8 1009.5 0.0
13/05:00am 18.9 15.7 0.5 29 8.2 SW 7 11 4 6 1009.6 1009.3 0.0
13/04:30am 19.9 16.3 0.4 27 8.7 WSW 9 11 5 6 1009.3 1009.0 0.0
13/04:00am 21.7 18.3 -0.9 22 10.0 WSW 7 11 4 6 1009.2 1008.9 0.0
13/03:30am 21.2 17.4 -0.7 23 9.7 NNE 9 20 5 11 1009.6 1009.3 0.0
13/03:00am 21.7 17.4 -1.6 21 10.2 NNE 11 15 6 8 1009.4 1009.1 0.0
13/02:30am 21.8 17.1 -1.5 21 10.2 NNE 13 15 7 8 1009.8 1009.5 0.0
13/02:00am 21.8 17.1 -1.5 21 10.2 NNE 13 15 7 8 1009.9 1009.6 0.0
13/01:30am 22.3 17.6 -1.7 20 10.5 NNE 13 15 7 8 1010.2 1009.9 0.0
13/01:00am 23.0 17.1 -2.6 18 11.1 NE 19 22 10 12 1010.5 1010.2 0.0
13/12:30am 22.2 17.0 -2.5 19 10.6 NE 15 17 8 9 1010.8 1010.5 0.0
13/12:00am 22.5 16.9 -3.0 18 10.9 NE 17 19 9 10 1011.1 1010.9 0.0
 
Date/Time
EDT
Temp
°C
App
Temp
°C
Dew
Point
°C
Rel
Hum
%
Delta-T
°C
Wind Press
QNH
hPa
Press
MSL
hPa
Rain since
9am
mm
Dir  Spd
km/h
Gust
km/h
Spd
kts
Gust
kts
12/11:30pm 22.1 17.3 -2.6 19 10.6 NNE 13 15 7 8 1011.3 1011.1 0.0
12/11:00pm 21.7 16.9 -2.9 19 10.5 NNE 13 15 7 8 1011.6 1011.4 0.0
12/10:30pm 23.1 17.8 -3.3 17 11.3 NNE 15 17 8 9 1012.0 1011.8 0.0
12/10:00pm 24.8 19.1 -3.6 15 12.3 NE 17 19 9 10 1012.1 1011.9 0.0
12/09:30pm 24.9 19.6 -3.5 15 12.3 NE 15 19 8 10 1012.0 1011.8 0.0
12/09:00pm 26.0 20.4 -2.6 15 12.7 NE 17 20 9 11 1011.9 1011.7 0.0
12/08:30pm 26.8 21.2 -2.9 14 13.2 NE 17 20 9 11 1011.7 1011.5 0.0
12/08:00pm 28.2 21.2 -3.9 12 14.2 NE 24 30 13 16 1011.6 1011.4 0.0
12/07:30pm 29.3 21.5 -4.2 11 14.9 NNE 28 39 15 21 1011.5 1011.3 0.0
12/07:00pm 30.0 21.7 -4.9 10 15.4 NNE 30 41 16 22 1011.6 1011.4 0.0
12/06:30pm 30.5 21.7 -4.5 10 15.6 NNE 33 46 18 25 1011.4 1011.2 0.0
12/06:00pm 31.8 25.4 -4.9 9 16.4 N 20 28 11 15 1011.7 1011.5 0.0
12/05:30pm 32.3 25.2 -4.6 9 16.7 N 24 32 13 17 1011.8 1011.6 0.0
12/05:00pm 33.0 25.6 -4.0 9 17.0 NNW 26 41 14 22 1011.8 1011.6 0.0
12/04:30pm 32.9 25.8 -4.1 9 16.9 NNW 24 37 13 20 1011.9 1011.7 0.0
12/04:18pm 33.1 25.3 -4.0 9 17.0 NNW 28 46 15 25 1012.0 1011.8 0.0
12/04:00pm 33.0 26.7 -5.6 8 17.2 NNE 19 26 10 14 1012.1 1011.9 0.0
12/03:30pm 32.7 25.1 -5.8 8 17.1 N 26 35 14 19 1012.7 1012.5 0.0
12/03:00pm 34.2 28.0 -4.7 8 17.8 N 19 33 10 18 1012.9 1012.7 0.0
12/02:30pm 33.7 27.3 -5.1 8 17.6 NNE 20 33 11 18 1013.3 1013.1 0.0
12/02:00pm 33.6 26.8 -5.2 8 17.5 NNW 22 35 12 19 1013.8 1013.6 0.0
12/01:30pm 32.4 25.7 -4.5 9 16.7 N 22 33 12 18 1014.3 1014.1 0.0
12/01:00pm 32.6 26.4 -2.9 10 16.5 N 20 30 11 16 1014.8 1014.6 0.0
12/12:30pm 30.6 23.6 -3.2 11 15.4 N 24 35 13 19 1015.4 1015.2 0.0
12/12:00pm 31.2 24.3 -2.7 11 15.7 N 24 35 13 19 1015.6 1015.4 0.0
12/11:30am 29.6 21.9 -2.8 12 14.8 N 28 41 15 22 1015.9 1015.7 0.0
12/11:00am 28.9 21.4 -1.2 14 14.0 NNE 28 44 15 24 1016.3 1016.1 0.0
12/10:30am 28.0 20.2 1.5 18 12.9 NNE 32 41 17 22 1016.5 1016.3 0.0
12/10:00am 26.8 20.5 4.0 23 11.5 NNE 26 33 14 18 1016.8 1016.6 0.0
12/09:30am 24.5 18.3 4.3 27 10.1 NNE 26 32 14 17 1017.3 1017.0 0.0
12/09:00am 22.0 15.9 5.0 33 8.4 NE 26 32 14 17 1017.1 1016.8 0.0
12/08:30am 19.6 14.3 7.0 44 6.4 NE 24 33 13 18 1017.1 1016.8 0.0
12/08:00am 16.0 11.8 7.5 57 4.3 NE 19 24 10 13 1016.9 1016.7 0.0
12/07:30am 14.7 10.8 7.0 60 3.8 ENE 17 22 9 12 1016.9 1016.7 0.0
12/07:00am 13.5 9.9 6.6 63 3.3 ENE 15 20 8 11 1016.7 1016.5 0.0
12/06:30am 11.7 8.4 6.4 70 2.5 ESE 13 15 7 8 1016.6 1016.4 0.0
12/06:00am 11.4 8.0 5.7 68 2.7 ESE 13 15 7 8 1016.6 1016.4 0.0
12/05:30am 11.6 8.1 5.3 65 2.9 ESE 13 15 7 8 1016.5 1016.3 0.0
12/05:00am 12.3 8.7 5.0 61 3.4 ESE 13 15 7 8 1016.5 1016.3 0.0
12/04:30am 12.8 8.7 4.5 57 3.8 ESE 15 19 8 10 1016.5 1016.3 0.0
12/04:00am 13.2 9.0 3.8 53 4.3 ESE 15 19 8 10 1016.5 1016.3 0.0
12/03:30am 12.8 8.5 3.2 52 4.3 ESE 15 20 8 11 1016.7 1016.5 0.0
12/03:00am 13.4 9.0 2.9 49 4.7 ESE 15 19 8 10 1016.7 1016.5 0.0
12/02:30am 13.7 8.8 2.3 46 5.0 ESE 17 20 9 11 1016.7 1016.5 0.0
12/02:00am 14.1 9.2 2.0 44 5.3 SE 17 20 9 11 1017.1 1016.8 0.0
12/01:30am 14.2 9.1 0.8 40 5.8 SE 17 19 9 10 1017.3 1017.0 0.0
12/01:00am 14.5 9.3 0.4 38 6.0 SE 17 17 9 9 1017.3 1017.0 0.0
12/12:30am 15.5 10.7 0.5 36 6.5 ESE 15 17 8 9 1017.2 1016.9 0.0
12/12:00am 15.4 11.4 0.8 37 6.3 ESE 11 15 6 8 1017.4 1017.1 0.0
 
Date/Time
EDT
Temp
°C
App
Temp
°C
Dew
Point
°C
Rel
Hum
%
Delta-T
°C
Wind Press
QNH
hPa
Press
MSL
hPa
Rain since
9am
mm
Dir  Spd
km/h
Gust
km/h
Spd
kts
Gust
kts
11/11:30pm 16.2 11.8 0.3 34 6.9 ESE 13 15 7 8 1017.3 1017.0 0.0
11/11:00pm 16.2 11.1 0.7 35 6.7 ESE 17 19 9 10 1017.3 1017.0 0.0
11/10:30pm 18.4 13.2 0.1 29 8.0 ESE 17 20 9 11 1017.4 1017.1 0.0
11/10:00pm 20.1 14.9 0.0 26 8.9 SE 17 20 9 11 1017.3 1017.0 0.0
11/09:30pm 18.7 14.1 -0.7 27 8.4 SE 13 17 7 9 1017.1 1016.8 0.0
11/09:00pm 19.6 15.5 -0.4 26 8.8 S 11 13 6 7 1016.7 1016.5 0.0
11/08:30pm 20.5 16.5 0.4 26 9.0 S 11 13 6 7 1016.7 1016.5 0.0
11/08:00pm 24.7 20.9 -0.4 19 11.5 S 9 9 5 5 1016.5 1016.3 0.0
11/07:30pm 26.5 23.0 -1.3 16 12.7 S 7 11 4 6 1016.4 1016.2 0.0
11/07:00pm 27.3 23.8 -1.6 15 13.2 S 7 9 4 5 1016.3 1016.1 0.0
11/06:30pm 28.1 24.7 -1.9 14 13.7 WSW 6 11 3 6 1016.2 1016.0 0.0
11/06:00pm 27.9 24.3 -2.0 14 13.6 NW 7 11 4 6 1016.4 1016.2 0.0
11/05:30pm 28.5 24.8 -2.6 13 14.1 SSW 7 15 4 8 1016.5 1016.3 0.0
11/05:00pm 27.8 23.8 -2.1 14 13.6 W 9 17 5 9 1016.5 1016.3 0.0
11/04:30pm 28.0 23.8 -1.0 15 13.5 SSW 11 15 6 8 1016.7 1016.5 0.0
11/04:00pm 28.2 24.5 0.0 16 13.3 WSW 9 17 5 9 1017.1 1016.8 0.0
11/03:30pm 27.6 22.6 -1.3 15 13.3 WSW 15 24 8 13 1017.6 1017.3 0.0
11/03:00pm 27.8 24.1 -0.3 16 13.2 SW 9 15 5 8 1018.0 1017.7 0.0
11/02:30pm 27.5 23.4 -0.5 16 13.1 SSW 11 19 6 10 1018.3 1018.1 0.0
11/02:00pm 26.4 22.5 0.9 19 12.1 NW 11 17 6 9 1018.6 1018.4 0.0
11/01:30pm 26.5 22.7 1.7 20 12.0 NW 11 32 6 17 1019.0 1018.8 0.0
11/01:00pm 25.0 21.7 2.4 23 10.9 NW 9 20 5 11 1019.4 1019.2 0.0
11/12:30pm 24.1 21.1 4.0 27 10.0 SW 9 13 5 7 1019.9 1019.7 0.0
11/12:00pm 23.0 20.0 4.0 29 9.3 NNE 9 15 5 8 1020.5 1020.3 0.0
11/11:30am 21.1 18.7 5.1 35 7.9 NW 7 15 4 8 1020.7 1020.5 0.0
11/11:00am 21.1 19.1 7.0 40 7.2 ENE 7 17 4 9 1020.9 1020.7 0.0
11/10:30am 20.0 17.8 7.7 45 6.4 NE 9 19 5 10 1021.2 1021.0 0.0
11/10:00am 19.1 16.1 7.8 48 5.8 E 13 20 7 11 1021.2 1021.0 0.0
11/09:30am 17.4 14.0 7.7 53 4.9 ESE 15 22 8 12 1021.4 1021.2 0.0
11/09:00am 16.4 12.6 7.6 56 4.4 ESE 17 22 9 12 1021.3 1021.1 0.0
11/08:30am 15.1 11.4 7.9 62 3.6 SE 17 22 9 12 1021.1 1020.9 0.0
11/08:00am 12.9 9.1 7.6 70 2.6 SSE 17 20 9 11 1021.0 1020.8 0.0
11/07:30am 10.6 7.0 6.9 78 1.8 SSE 15 20 8 11 1020.8 1020.6 0.0
11/07:00am 8.6 4.1 6.1 84 1.1 SSE 19 24 10 13 1020.5 1020.3 0.0
11/06:30am 7.3 3.1 5.6 89 0.8 SSE 17 20 9 11 1020.1 1019.9 0.0
11/06:00am 6.8 3.6 5.3 90 0.7 SE 11 13 6 7 1019.8 1019.6 0.0
11/05:30am 7.5 4.1 5.8 89 0.8 SE 13 15 7 8 1019.7 1019.5 0.0
11/05:00am 8.2 4.5 6.2 87 0.9 SE 15 17 8 9 1019.5 1019.3 0.0
11/04:30am 8.8 5.1 6.4 85 1.1 SE 15 19 8 10 1019.3 1019.1 0.0
11/04:00am 8.5 5.2 6.5 87 0.9 SE 13 17 7 9 1019.1 1018.9 0.0
11/03:30am 9.6 5.3 6.9 83 1.3 SE 19 24 10 13 1018.9 1018.7 0.0
11/03:00am 9.8 5.5 6.9 82 1.4 SSE 19 22 10 12 1019.0 1018.8 0.0
11/02:30am 10.4 5.9 7.1 80 1.6 SSE 20 26 11 14 1019.1 1018.9 0.0
11/02:00am 10.9 6.6 7.0 77 1.9 SSE 19 24 10 13 1019.3 1019.1 0.0
11/01:30am 11.5 7.1 7.2 75 2.1 SSE 20 28 11 15 1019.6 1019.4 0.0
11/01:00am 11.7 7.4 7.0 73 2.3 SSE 19 26 10 14 1019.6 1019.4 0.0
11/12:30am 12.5 8.2 6.8 68 2.7 SSE 19 24 10 13 1019.5 1019.3 0.0
11/12:00am 12.7 8.7 6.5 66 3.0 SE 17 22 9 12 1019.3 1019.1 0.0
 
Date/Time
EDT
Temp
°C
App
Temp
°C
Dew
Point
°C
Rel
Hum
%
Delta-T
°C
Wind Press
QNH
hPa
Press
MSL
hPa
Rain since
9am
mm
Dir  Spd
km/h
Gust
km/h
Spd
kts
Gust
kts
10/11:30pm 13.0 8.9 6.1 63 3.3 SSE 17 20 9 11 1019.1 1018.9 0.0
10/11:00pm 13.2 9.8 6.1 62 3.4 S 13 15 7 8 1019.2 1019.0 0.0
10/10:30pm 13.7 10.4 6.3 61 3.6 S 13 15 7 8 1019.4 1019.2 0.0
10/10:00pm 15.0 11.7 6.3 56 4.2 S 13 17 7 9 1019.1 1018.9 0.0
10/09:30pm 15.9 11.8 6.3 53 4.7 S 17 20 9 11 1018.8 1018.6 0.0
10/09:00pm 17.0 12.6 6.5 50 5.2 S 19 22 10 12 1018.6 1018.4 0.0
10/08:30pm 17.6 13.8 5.9 46 5.7 S 15 19 8 10 1018.4 1018.2 0.0
10/08:00pm 19.3 15.1 5.7 41 6.7 S 17 22 9 12 1018.1 1017.8 0.0
10/07:30pm 21.0 16.2 5.4 36 7.8 SSW 20 28 11 15 1017.8 1017.5 0.0
10/07:00pm 22.1 17.3 5.5 34 8.3 SSW 20 26 11 14 1017.4 1017.1 0.0
10/06:30pm 22.6 18.4 5.5 33 8.6 SW 17 26 9 14 1017.3 1017.0 0.0
10/06:00pm 23.0 18.8 5.9 33 8.7 SSW 17 26 9 14 1017.2 1016.9 0.0
10/05:30pm 23.8 19.7 6.1 32 9.1 SW 17 28 9 15 1017.2 1016.9 0.0
10/05:00pm 24.0 19.0 6.3 32 9.1 SW 22 43 12 23 1017.3 1017.0 0.0
10/04:30pm 23.6 18.9 6.0 32 9.0 WSW 20 32 11 17 1017.4 1017.1 0.0
10/04:00pm 24.6 19.5 5.9 30 9.6 WSW 22 37 12 20 1017.5 1017.2 0.0
10/03:30pm 23.7 18.9 5.6 31 9.2 SW 20 30 11 16 1017.6 1017.3 0.0
10/03:00pm 22.7 17.5 5.6 33 8.6 SSW 22 35 12 19 1017.8 1017.5 0.0
10/02:30pm 22.6 17.9 6.0 34 8.4 SW 20 32 11 17 1018.2 1018.0 0.0
10/02:00pm 21.8 18.0 5.7 35 8.1 W 15 24 8 13 1018.3 1018.1 0.0
10/01:30pm 22.1 17.3 4.7 32 8.6 WSW 19 30 10 16 1018.6 1018.4 0.0
10/01:00pm 21.7 16.9 5.6 35 8.1 W 20 33 11 18 1019.0 1018.8 0.0
10/12:30pm 20.1 15.5 5.4 38 7.3 WSW 19 28 10 15 1019.2 1019.0 0.0
10/12:00pm 20.4 15.9 6.0 39 7.2 WNW 19 30 10 16 1019.5 1019.3 0.0
10/11:30am 20.3 17.1 7.0 42 6.8 W 13 22 7 12 1019.5 1019.3 0.0
10/11:00am 19.1 14.9 5.9 42 6.5 WNW 17 28 9 15 1019.6 1019.4 0.0
10/10:30am 17.9 15.5 7.0 49 5.5 WSW 9 19 5 10 1019.5 1019.3 0.0
10/10:00am 17.1 15.2 7.5 53 4.8 WSW 7 15 4 8 1019.7 1019.5 0.0
10/09:30am 16.1 13.7 8.6 61 3.8 SSW 11 17 6 9 1019.9 1019.7 0.0
10/09:00am 15.3 12.7 7.8 61 3.8 S 11 17 6 9 1019.9 1019.7 0.0
10/08:30am 15.1 12.4 8.8 66 3.2 SSW 13 17 7 9 1019.9 1019.7 0.0
10/08:00am 12.7 10.7 8.6 76 2.0 SSW 9 13 5 7 1019.7 1019.5 0.0
10/07:30am 9.4 7.1 7.3 87 1.0 SSW 9 13 5 7 1019.4 1019.2 0.0
10/07:00am 6.2 3.7 5.0 92 0.5 SSW 7 9 4 5 1019.0 1018.8 0.0
10/06:30am 5.3 2.3 4.3 93 0.4 SSW 9 11 5 6 1018.6 1018.4 0.0
10/06:00am 5.9 4.5 5.5 97 0.2 SSW 2 7 1 4 1018.3 1018.1 0.0

Other Formats:

Comma delimited format used in spreadsheet applications
http://www.bom.gov.au/fwo/IDV60801/IDV60801.94920.axf

JavaScript Object Notation format (JSON) in row-major order
http://www.bom.gov.au/fwo/IDV60801/IDV60801.94920.json